sensor_id;sensor_type;location;lat;lon;timestamp;pressure;altitude;pressure_sealevel;temperature;humidity
7333;BME280;3707;43.618;25.342;2022-10-18T00:02:23;101880.97;;;11.27;100.00
7333;BME280;3707;43.618;25.342;2022-10-18T00:04:50;101877.50;;;11.27;100.00
7333;BME280;3707;43.618;25.342;2022-10-18T00:07:18;101850.38;;;11.20;100.00
7333;BME280;3707;43.618;25.342;2022-10-18T00:09:45;101878.00;;;11.18;100.00
7333;BME280;3707;43.618;25.342;2022-10-18T00:12:11;101852.81;;;10.95;100.00
7333;BME280;3707;43.618;25.342;2022-10-18T00:14:38;101862.06;;;11.09;100.00
7333;BME280;3707;43.618;25.342;2022-10-18T00:17:05;101868.06;;;11.08;100.00
7333;BME280;3707;43.618;25.342;2022-10-18T00:19:32;101872.06;;;11.00;100.00
7333;BME280;3707;43.618;25.342;2022-10-18T00:21:58;101865.81;;;10.95;100.00
7333;BME280;3707;43.618;25.342;2022-10-18T00:24:26;101861.78;;;11.03;100.00
7333;BME280;3707;43.618;25.342;2022-10-18T00:26:53;101857.84;;;10.92;100.00
7333;BME280;3707;43.618;25.342;2022-10-18T00:29:20;101852.19;;;11.01;100.00
7333;BME280;3707;43.618;25.342;2022-10-18T00:31:47;101847.75;;;10.98;100.00
7333;BME280;3707;43.618;25.342;2022-10-18T00:34:14;101846.72;;;11.15;100.00
7333;BME280;3707;43.618;25.342;2022-10-18T00:36:42;101843.16;;;11.13;100.00
7333;BME280;3707;43.618;25.342;2022-10-18T00:39:15;101813.94;;;10.97;100.00
7333;BME280;3707;43.618;25.342;2022-10-18T00:41:43;101846.63;;;11.12;100.00
7333;BME280;3707;43.618;25.342;2022-10-18T00:47:15;101839.19;;;11.01;100.00
7333;BME280;3707;43.618;25.342;2022-10-18T00:49:45;101836.47;;;10.98;100.00
7333;BME280;3707;43.618;25.342;2022-10-18T00:52:17;101843.94;;;10.90;100.00
7333;BME280;3707;43.618;25.342;2022-10-18T00:54:46;101837.75;;;10.86;100.00
7333;BME280;3707;43.618;25.342;2022-10-18T00:57:15;101815.84;;;10.80;100.00
7333;BME280;3707;43.618;25.342;2022-10-18T00:59:43;101838.50;;;10.84;100.00
7333;BME280;3707;43.618;25.342;2022-10-18T01:02:11;101830.19;;;10.72;100.00
7333;BME280;3707;43.618;25.342;2022-10-18T01:04:39;101825.50;;;10.63;100.00
7333;BME280;3707;43.618;25.342;2022-10-18T01:07:11;101836.59;;;10.80;100.00
7333;BME280;3707;43.618;25.342;2022-10-18T01:09:44;101824.94;;;10.70;100.00
7333;BME280;3707;43.618;25.342;2022-10-18T01:12:20;101818.72;;;10.67;100.00
7333;BME280;3707;43.618;25.342;2022-10-18T01:14:58;101821.31;;;10.67;100.00
7333;BME280;3707;43.618;25.342;2022-10-18T01:17:30;101816.84;;;10.63;100.00
7333;BME280;3707;43.618;25.342;2022-10-18T01:23:18;101793.66;;;10.47;100.00
7333;BME280;3707;43.618;25.342;2022-10-18T01:25:53;101804.44;;;10.56;100.00
7333;BME280;3707;43.618;25.342;2022-10-18T01:28:45;101804.69;;;10.62;100.00
7333;BME280;3707;43.618;25.342;2022-10-18T01:31:19;101809.63;;;10.56;100.00
7333;BME280;3707;43.618;25.342;2022-10-18T01:33:50;101795.38;;;10.46;100.00
7333;BME280;3707;43.618;25.342;2022-10-18T01:36:23;101803.09;;;10.44;100.00
7333;BME280;3707;43.618;25.342;2022-10-18T01:38:52;101798.19;;;10.31;100.00
7333;BME280;3707;43.618;25.342;2022-10-18T01:41:22;101805.00;;;10.29;100.00
7333;BME280;3707;43.618;25.342;2022-10-18T01:43:53;101801.75;;;10.33;100.00
7333;BME280;3707;43.618;25.342;2022-10-18T01:46:25;101802.44;;;10.29;100.00
7333;BME280;3707;43.618;25.342;2022-10-18T01:48:53;101782.28;;;10.05;100.00
7333;BME280;3707;43.618;25.342;2022-10-18T01:51:23;101795.88;;;10.18;100.00
7333;BME280;3707;43.618;25.342;2022-10-18T01:53:50;101810.78;;;10.05;100.00
7333;BME280;3707;43.618;25.342;2022-10-18T01:56:23;101786.72;;;10.07;100.00
7333;BME280;3707;43.618;25.342;2022-10-18T01:58:59;101785.22;;;10.12;100.00
7333;BME280;3707;43.618;25.342;2022-10-18T02:01:36;101799.28;;;10.17;100.00
7333;BME280;3707;43.618;25.342;2022-10-18T02:04:16;101801.97;;;10.19;100.00
7333;BME280;3707;43.618;25.342;2022-10-18T02:06:49;101791.88;;;10.07;100.00
7333;BME280;3707;43.618;25.342;2022-10-18T02:09:20;101690.84;;;9.50;100.00
7333;BME280;3707;43.618;25.342;2022-10-18T02:11:53;101796.88;;;10.03;100.00
7333;BME280;3707;43.618;25.342;2022-10-18T02:14:22;101785.53;;;9.81;100.00
7333;BME280;3707;43.618;25.342;2022-10-18T02:16:53;101778.38;;;9.76;100.00
7333;BME280;3707;43.618;25.342;2022-10-18T02:19:25;101768.78;;;9.73;100.00
7333;BME280;3707;43.618;25.342;2022-10-18T02:21:53;101754.66;;;9.67;100.00
7333;BME280;3707;43.618;25.342;2022-10-18T02:24:23;101781.91;;;9.78;100.00
7333;BME280;3707;43.618;25.342;2022-10-18T02:26:51;101776.56;;;9.73;100.00
7333;BME280;3707;43.618;25.342;2022-10-18T02:29:18;101777.59;;;9.77;100.00
7333;BME280;3707;43.618;25.342;2022-10-18T02:31:48;101780.56;;;9.86;100.00
7333;BME280;3707;43.618;25.342;2022-10-18T02:34:20;101790.94;;;9.86;100.00
7333;BME280;3707;43.618;25.342;2022-10-18T02:36:50;101767.31;;;9.61;100.00
7333;BME280;3707;43.618;25.342;2022-10-18T02:39:20;101758.84;;;9.45;100.00
7333;BME280;3707;43.618;25.342;2022-10-18T02:41:48;101786.47;;;9.45;100.00
7333;BME280;3707;43.618;25.342;2022-10-18T02:44:15;101790.63;;;9.41;100.00
7333;BME280;3707;43.618;25.342;2022-10-18T02:46:43;101787.19;;;9.42;100.00
7333;BME280;3707;43.618;25.342;2022-10-18T02:49:10;101795.78;;;9.41;100.00
7333;BME280;3707;43.618;25.342;2022-10-18T02:51:38;101790.00;;;9.47;100.00
7333;BME280;3707;43.618;25.342;2022-10-18T02:54:05;101784.53;;;9.41;100.00
7333;BME280;3707;43.618;25.342;2022-10-18T02:56:32;101763.03;;;9.24;100.00
7333;BME280;3707;43.618;25.342;2022-10-18T02:59:00;101798.91;;;9.34;100.00
7333;BME280;3707;43.618;25.342;2022-10-18T03:01:28;101743.19;;;9.06;100.00
7333;BME280;3707;43.618;25.342;2022-10-18T03:03:54;101795.34;;;9.32;100.00
7333;BME280;3707;43.618;25.342;2022-10-18T03:06:21;101790.63;;;9.41;100.00
7333;BME280;3707;43.618;25.342;2022-10-18T03:08:49;101795.06;;;9.63;100.00
7333;BME280;3707;43.618;25.342;2022-10-18T03:11:16;101800.34;;;9.47;100.00
7333;BME280;3707;43.618;25.342;2022-10-18T03:13:43;101796.66;;;9.42;100.00
7333;BME280;3707;43.618;25.342;2022-10-18T03:16:10;101800.75;;;9.37;100.00
7333;BME280;3707;43.618;25.342;2022-10-18T03:18:37;101780.91;;;9.74;100.00
7333;BME280;3707;43.618;25.342;2022-10-18T03:21:04;101774.16;;;9.78;100.00
7333;BME280;3707;43.618;25.342;2022-10-18T03:23:31;101777.94;;;9.67;100.00
7333;BME280;3707;43.618;25.342;2022-10-18T03:26:00;101775.22;;;9.64;100.00
7333;BME280;3707;43.618;25.342;2022-10-18T03:28:26;101802.31;;;9.53;100.00
7333;BME280;3707;43.618;25.342;2022-10-18T03:30:58;101802.25;;;9.69;100.00
7333;BME280;3707;43.618;25.342;2022-10-18T03:33:25;101800.34;;;9.47;100.00
7333;BME280;3707;43.618;25.342;2022-10-18T03:35:52;101795.63;;;9.38;100.00
7333;BME280;3707;43.618;25.342;2022-10-18T03:38:19;101799.47;;;9.29;100.00
7333;BME280;3707;43.618;25.342;2022-10-18T03:40:46;101765.19;;;9.15;100.00
7333;BME280;3707;43.618;25.342;2022-10-18T03:43:14;101790.63;;;9.41;100.00
7333;BME280;3707;43.618;25.342;2022-10-18T03:45:41;101791.59;;;9.26;100.00
7333;BME280;3707;43.618;25.342;2022-10-18T03:48:07;101774.06;;;9.03;100.00
7333;BME280;3707;43.618;25.342;2022-10-18T03:50:34;101785.44;;;9.06;100.00
7333;BME280;3707;43.618;25.342;2022-10-18T03:53:01;101786.13;;;9.02;100.00
7333;BME280;3707;43.618;25.342;2022-10-18T03:55:28;101799.72;;;8.98;100.00
7333;BME280;3707;43.618;25.342;2022-10-18T03:57:55;101788.34;;;8.94;100.00
7333;BME280;3707;43.618;25.342;2022-10-18T04:00:23;101784.50;;;9.04;100.00
7333;BME280;3707;43.618;25.342;2022-10-18T04:02:50;101788.25;;;8.93;100.00
7333;BME280;3707;43.618;25.342;2022-10-18T04:05:16;101758.75;;;8.72;100.00
7333;BME280;3707;43.618;25.342;2022-10-18T04:07:43;101794.22;;;8.92;100.00
7333;BME280;3707;43.618;25.342;2022-10-18T04:10:10;101790.03;;;8.94;100.00
7333;BME280;3707;43.618;25.342;2022-10-18T04:12:37;101794.22;;;8.92;100.00
7333;BME280;3707;43.618;25.342;2022-10-18T04:15:04;101778.19;;;8.99;100.00
7333;BME280;3707;43.618;25.342;2022-10-18T04:17:32;101778.38;;;9.02;100.00
7333;BME280;3707;43.618;25.342;2022-10-18T04:19:59;101784.06;;;8.95;100.00
7333;BME280;3707;43.618;25.342;2022-10-18T04:22:26;101775.09;;;9.06;100.00
7333;BME280;3707;43.618;25.342;2022-10-18T04:24:53;101676.00;;;8.54;100.00
7333;BME280;3707;43.618;25.342;2022-10-18T04:27:21;101746.72;;;9.08;100.00
7333;BME280;3707;43.618;25.342;2022-10-18T04:29:48;101778.28;;;9.18;100.00
7333;BME280;3707;43.618;25.342;2022-10-18T04:32:15;101776.72;;;9.04;100.00
7333;BME280;3707;43.618;25.342;2022-10-18T04:34:43;101778.69;;;9.10;100.00
7333;BME280;3707;43.618;25.342;2022-10-18T04:37:10;101773.00;;;8.99;100.00
7333;BME280;3707;43.618;25.342;2022-10-18T04:39:36;101765.94;;;8.95;100.00
7333;BME280;3707;43.618;25.342;2022-10-18T04:42:03;101774.56;;;9.13;100.00
7333;BME280;3707;43.618;25.342;2022-10-18T04:44:30;101761.06;;;9.01;100.00
7333;BME280;3707;43.618;25.342;2022-10-18T04:46:57;101785.53;;;9.08;100.00
7333;BME280;3707;43.618;25.342;2022-10-18T04:49:24;101784.41;;;9.03;100.00
7333;BME280;3707;43.618;25.342;2022-10-18T04:51:52;101776.44;;;9.16;100.00
7333;BME280;3707;43.618;25.342;2022-10-18T04:54:19;101773.63;;;9.11;100.00
7333;BME280;3707;43.618;25.342;2022-10-18T04:56:45;101772.88;;;9.14;100.00
7333;BME280;3707;43.618;25.342;2022-10-18T04:59:12;101768.19;;;9.24;100.00
7333;BME280;3707;43.618;25.342;2022-10-18T05:01:39;101780.47;;;9.28;100.00
7333;BME280;3707;43.618;25.342;2022-10-18T05:04:06;101778.34;;;9.37;100.00
7333;BME280;3707;43.618;25.342;2022-10-18T05:06:32;101775.50;;;9.51;100.00
7333;BME280;3707;43.618;25.342;2022-10-18T05:09:01;101785.19;;;9.74;100.00
7333;BME280;3707;43.618;25.342;2022-10-18T05:11:27;101776.06;;;9.63;100.00
7333;BME280;3707;43.618;25.342;2022-10-18T05:13:54;101782.31;;;9.68;100.00
7333;BME280;3707;43.618;25.342;2022-10-18T05:16:21;101780.19;;;9.77;100.00
7333;BME280;3707;43.618;25.342;2022-10-18T05:18:48;101765.22;;;9.71;100.00
7333;BME280;3707;43.618;25.342;2022-10-18T05:21:15;101787.53;;;9.87;100.00
7333;BME280;3707;43.618;25.342;2022-10-18T05:23:42;101786.91;;;9.92;100.00
7333;BME280;3707;43.618;25.342;2022-10-18T05:26:10;101790.63;;;10.17;100.00
7333;BME280;3707;43.618;25.342;2022-10-18T05:28:37;101786.97;;;10.13;100.00
7333;BME280;3707;43.618;25.342;2022-10-18T05:31:05;101788.66;;;10.30;100.00
7333;BME280;3707;43.618;25.342;2022-10-18T05:33:33;101794.66;;;10.29;100.00
7333;BME280;3707;43.618;25.342;2022-10-18T05:36:00;101781.47;;;10.25;100.00
7333;BME280;3707;43.618;25.342;2022-10-18T05:38:26;101789.72;;;10.35;100.00
7333;BME280;3707;43.618;25.342;2022-10-18T05:40:55;101771.31;;;10.29;100.00
7333;BME280;3707;43.618;25.342;2022-10-18T05:43:26;101786.47;;;10.60;100.00
7333;BME280;3707;43.618;25.342;2022-10-18T05:45:54;101769.09;;;10.38;100.00
7333;BME280;3707;43.618;25.342;2022-10-18T05:48:20;101793.44;;;10.61;100.00
7333;BME280;3707;43.618;25.342;2022-10-18T05:50:47;101728.75;;;10.24;100.00
7333;BME280;3707;43.618;25.342;2022-10-18T05:53:14;101797.25;;;10.69;100.00
7333;BME280;3707;43.618;25.342;2022-10-18T05:55:41;101791.78;;;10.63;100.00
7333;BME280;3707;43.618;25.342;2022-10-18T05:58:07;101704.72;;;10.28;100.00
7333;BME280;3707;43.618;25.342;2022-10-18T06:00:36;101808.41;;;11.10;100.00
7333;BME280;3707;43.618;25.342;2022-10-18T06:03:03;101799.63;;;11.06;100.00
7333;BME280;3707;43.618;25.342;2022-10-18T06:05:29;101803.88;;;11.04;100.00
7333;BME280;3707;43.618;25.342;2022-10-18T06:07:56;101804.81;;;11.06;100.00
7333;BME280;3707;43.618;25.342;2022-10-18T06:10:23;101745.34;;;10.69;100.00
7333;BME280;3707;43.618;25.342;2022-10-18T06:12:51;101743.06;;;10.77;100.00
7333;BME280;3707;43.618;25.342;2022-10-18T06:15:17;101808.53;;;11.33;100.00
7333;BME280;3707;43.618;25.342;2022-10-18T06:17:46;101811.84;;;11.52;100.00
7333;BME280;3707;43.618;25.342;2022-10-18T06:20:12;101816.16;;;11.51;100.00
7333;BME280;3707;43.618;25.342;2022-10-18T06:22:39;101812.97;;;11.58;100.00
7333;BME280;3707;43.618;25.342;2022-10-18T06:25:07;101814.59;;;11.77;100.00
7333;BME280;3707;43.618;25.342;2022-10-18T06:27:34;101803.00;;;11.70;100.00
7333;BME280;3707;43.618;25.342;2022-10-18T06:30:01;101817.69;;;11.90;100.00
7333;BME280;3707;43.618;25.342;2022-10-18T06:32:27;101815.59;;;12.04;100.00
7333;BME280;3707;43.618;25.342;2022-10-18T06:34:55;101811.19;;;12.25;100.00
7333;BME280;3707;43.618;25.342;2022-10-18T06:37:22;101821.50;;;12.24;100.00
7333;BME280;3707;43.618;25.342;2022-10-18T06:39:49;101820.16;;;12.33;100.00
7333;BME280;3707;43.618;25.342;2022-10-18T06:42:16;101819.28;;;12.34;100.00
7333;BME280;3707;43.618;25.342;2022-10-18T06:44:42;101817.13;;;12.47;100.00
7333;BME280;3707;43.618;25.342;2022-10-18T06:47:09;101801.63;;;12.50;100.00
7333;BME280;3707;43.618;25.342;2022-10-18T06:49:36;101817.88;;;12.68;100.00
7333;BME280;3707;43.618;25.342;2022-10-18T06:52:04;101815.06;;;12.87;100.00
7333;BME280;3707;43.618;25.342;2022-10-18T06:54:31;101815.00;;;12.85;100.00
7333;BME280;3707;43.618;25.342;2022-10-18T06:56:58;101814.97;;;12.84;100.00
7333;BME280;3707;43.618;25.342;2022-10-18T06:59:27;101801.91;;;12.82;100.00
7333;BME280;3707;43.618;25.342;2022-10-18T07:01:54;101808.91;;;12.85;100.00
7333;BME280;3707;43.618;25.342;2022-10-18T07:04:21;101805.84;;;12.97;100.00
7333;BME280;3707;43.618;25.342;2022-10-18T07:06:48;101807.19;;;12.85;100.00
7333;BME280;3707;43.618;25.342;2022-10-18T07:09:16;101789.72;;;12.81;100.00
7333;BME280;3707;43.618;25.342;2022-10-18T07:11:43;101797.97;;;12.95;100.00
7333;BME280;3707;43.618;25.342;2022-10-18T07:14:09;101798.94;;;12.99;100.00
7333;BME280;3707;43.618;25.342;2022-10-18T07:16:36;101802.81;;;13.10;100.00
7333;BME280;3707;43.618;25.342;2022-10-18T07:19:03;101790.47;;;13.04;100.00
7333;BME280;3707;43.618;25.342;2022-10-18T07:21:30;101808.38;;;12.95;100.00
7333;BME280;3707;43.618;25.342;2022-10-18T07:23:57;101797.13;;;12.96;100.00
7333;BME280;3707;43.618;25.342;2022-10-18T07:26:27;101795.66;;;13.29;100.00
7333;BME280;3707;43.618;25.342;2022-10-18T07:28:56;101805.47;;;13.38;100.00
7333;BME280;3707;43.618;25.342;2022-10-18T07:31:23;101774.19;;;13.38;100.00
7333;BME280;3707;43.618;25.342;2022-10-18T07:33:51;101804.69;;;13.69;100.00
7333;BME280;3707;43.618;25.342;2022-10-18T07:36:18;101796.50;;;13.57;100.00
7333;BME280;3707;43.618;25.342;2022-10-18T07:38:45;101792.88;;;13.52;100.00
7333;BME280;3707;43.618;25.342;2022-10-18T07:41:13;101777.56;;;13.62;100.00
7333;BME280;3707;43.618;25.342;2022-10-18T07:43:42;101794.84;;;13.88;100.00
7333;BME280;3707;43.618;25.342;2022-10-18T07:46:11;101775.84;;;13.93;100.00
7333;BME280;3707;43.618;25.342;2022-10-18T07:48:38;101799.75;;;13.78;100.00
7333;BME280;3707;43.618;25.342;2022-10-18T07:51:05;101804.66;;;13.97;100.00
7333;BME280;3707;43.618;25.342;2022-10-18T07:53:32;101799.47;;;13.99;100.00
7333;BME280;3707;43.618;25.342;2022-10-18T07:56:01;101803.50;;;14.17;98.15
7333;BME280;3707;43.618;25.342;2022-10-18T07:58:29;101792.44;;;14.26;96.75
7333;BME280;3707;43.618;25.342;2022-10-18T08:01:00;101764.63;;;14.26;97.06
7333;BME280;3707;43.618;25.342;2022-10-18T08:03:27;101782.59;;;14.47;96.56
7333;BME280;3707;43.618;25.342;2022-10-18T08:05:54;101791.34;;;14.49;95.38
7333;BME280;3707;43.618;25.342;2022-10-18T08:08:21;101799.44;;;14.58;95.04
7333;BME280;3707;43.618;25.342;2022-10-18T08:10:49;101789.22;;;14.67;93.15
7333;BME280;3707;43.618;25.342;2022-10-18T08:13:16;101780.81;;;14.79;93.04
7333;BME280;3707;43.618;25.342;2022-10-18T08:15:43;101779.94;;;14.78;92.25
7333;BME280;3707;43.618;25.342;2022-10-18T08:18:11;101693.94;;;14.50;91.41
7333;BME280;3707;43.618;25.342;2022-10-18T08:20:42;101786.13;;;15.18;90.28
7333;BME280;3707;43.618;25.342;2022-10-18T08:23:08;101782.59;;;15.16;90.53
7333;BME280;3707;43.618;25.342;2022-10-18T08:25:35;101784.72;;;15.32;90.89
7333;BME280;3707;43.618;25.342;2022-10-18T08:28:02;101776.44;;;15.50;90.19
7333;BME280;3707;43.618;25.342;2022-10-18T08:30:29;101768.88;;;15.62;89.67
7333;BME280;3707;43.618;25.342;2022-10-18T08:32:56;101751.13;;;15.49;87.80
7333;BME280;3707;43.618;25.342;2022-10-18T08:35:24;101763.22;;;15.84;89.07
7333;BME280;3707;43.618;25.342;2022-10-18T08:37:51;101765.66;;;15.75;88.16
7333;BME280;3707;43.618;25.342;2022-10-18T08:40:18;101760.84;;;15.96;87.88
7333;BME280;3707;43.618;25.342;2022-10-18T08:43:04;101750.31;;;16.38;86.09
7333;BME280;3707;43.618;25.342;2022-10-18T08:45:35;101748.47;;;16.34;85.95
7333;BME280;3707;43.618;25.342;2022-10-18T08:48:04;101751.94;;;16.30;84.75
7333;BME280;3707;43.618;25.342;2022-10-18T08:50:35;101744.28;;;16.42;85.25
7333;BME280;3707;43.618;25.342;2022-10-18T08:53:12;101747.31;;;16.63;85.25
7333;BME280;3707;43.618;25.342;2022-10-18T08:55:43;101746.25;;;16.54;82.80
7333;BME280;3707;43.618;25.342;2022-10-18T08:58:15;101743.97;;;16.72;81.23
7333;BME280;3707;43.618;25.342;2022-10-18T09:00:47;101736.03;;;16.67;80.23
7333;BME280;3707;43.618;25.342;2022-10-18T09:03:25;101729.44;;;16.92;78.75
7333;BME280;3707;43.618;25.342;2022-10-18T09:06:02;101744.41;;;16.99;75.21
7333;BME280;3707;43.618;25.342;2022-10-18T09:09:06;101742.91;;;17.16;71.92
7333;BME280;3707;43.618;25.342;2022-10-18T09:11:46;101731.59;;;17.20;72.22
7333;BME280;3707;43.618;25.342;2022-10-18T09:14:43;101729.03;;;17.23;71.05
7333;BME280;3707;43.618;25.342;2022-10-18T09:17:20;101714.00;;;17.10;72.88
7333;BME280;3707;43.618;25.342;2022-10-18T09:20:02;101720.56;;;17.43;73.63
7333;BME280;3707;43.618;25.342;2022-10-18T09:22:40;101721.06;;;17.79;75.54
7333;BME280;3707;43.618;25.342;2022-10-18T09:25:16;101723.00;;;17.95;72.55
7333;BME280;3707;43.618;25.342;2022-10-18T09:27:50;101708.16;;;17.99;72.40
7333;BME280;3707;43.618;25.342;2022-10-18T09:30:38;101701.38;;;18.20;70.60
7333;BME280;3707;43.618;25.342;2022-10-18T09:33:25;101703.25;;;18.33;70.01
7333;BME280;3707;43.618;25.342;2022-10-18T09:35:55;101682.22;;;18.30;75.74
7333;BME280;3707;43.618;25.342;2022-10-18T09:38:28;101695.41;;;18.38;68.92
7333;BME280;3707;43.618;25.342;2022-10-18T09:40:59;101689.34;;;18.41;68.30
7333;BME280;3707;43.618;25.342;2022-10-18T09:43:38;101692.84;;;18.46;68.39
7333;BME280;3707;43.618;25.342;2022-10-18T09:46:08;101693.78;;;18.48;68.65
7333;BME280;3707;43.618;25.342;2022-10-18T09:48:41;101699.19;;;18.66;67.72
7333;BME280;3707;43.618;25.342;2022-10-18T09:51:13;101685.19;;;18.65;67.50
7333;BME280;3707;43.618;25.342;2022-10-18T09:53:56;101678.28;;;18.84;68.49
7333;BME280;3707;43.618;25.342;2022-10-18T09:56:27;101617.47;;;18.32;66.75
7333;BME280;3707;43.618;25.342;2022-10-18T09:58:55;101678.94;;;18.53;65.75
7333;BME280;3707;43.618;25.342;2022-10-18T10:01:24;101640.03;;;18.12;65.20
7333;BME280;3707;43.618;25.342;2022-10-18T10:03:51;101663.84;;;18.32;65.65
7333;BME280;3707;43.618;25.342;2022-10-18T10:06:24;101659.47;;;18.29;64.36
7333;BME280;3707;43.618;25.342;2022-10-18T10:09:00;101658.91;;;18.67;63.82
7333;BME280;3707;43.618;25.342;2022-10-18T10:11:30;101651.72;;;18.46;63.05
7333;BME280;3707;43.618;25.342;2022-10-18T10:14:07;101644.91;;;18.68;60.77
7333;BME280;3707;43.618;25.342;2022-10-18T10:16:42;101641.28;;;18.55;60.83
7333;BME280;3707;43.618;25.342;2022-10-18T10:19:16;101620.09;;;18.37;60.59
7333;BME280;3707;43.618;25.342;2022-10-18T10:21:43;101641.38;;;18.61;61.24
7333;BME280;3707;43.618;25.342;2022-10-18T10:24:20;101640.72;;;19.00;58.37
7333;BME280;3707;43.618;25.342;2022-10-18T10:26:48;101634.50;;;18.83;57.97
7333;BME280;3707;43.618;25.342;2022-10-18T10:29:46;101633.72;;;18.99;57.82
7333;BME280;3707;43.618;25.342;2022-10-18T10:32:15;101619.50;;;18.73;56.87
7333;BME280;3707;43.618;25.342;2022-10-18T10:34:42;101598.47;;;18.70;57.19
7333;BME280;3707;43.618;25.342;2022-10-18T10:37:23;101612.78;;;19.20;57.01
7333;BME280;3707;43.618;25.342;2022-10-18T10:40:06;101604.00;;;19.20;56.40
7333;BME280;3707;43.618;25.342;2022-10-18T10:42:36;101582.00;;;18.94;57.71
7333;BME280;3707;43.618;25.342;2022-10-18T10:45:14;101590.88;;;19.21;55.91
7333;BME280;3707;43.618;25.342;2022-10-18T10:47:41;101591.75;;;19.23;55.89
7333;BME280;3707;43.618;25.342;2022-10-18T10:50:09;101576.88;;;19.38;55.37
7333;BME280;3707;43.618;25.342;2022-10-18T10:52:38;101548.75;;;19.08;55.25
7333;BME280;3707;43.618;25.342;2022-10-18T10:55:17;101571.69;;;19.51;53.67
7333;BME280;3707;43.618;25.342;2022-10-18T10:57:46;101563.81;;;19.47;55.39
7333;BME280;3707;43.618;25.342;2022-10-18T11:00:33;101569.09;;;19.65;52.52
7333;BME280;3707;43.618;25.342;2022-10-18T11:03:05;101562.06;;;19.50;53.05
7333;BME280;3707;43.618;25.342;2022-10-18T11:05:41;101533.97;;;19.43;52.50
7333;BME280;3707;43.618;25.342;2022-10-18T11:08:10;101552.41;;;19.57;51.79
7333;BME280;3707;43.618;25.342;2022-10-18T11:10:49;101546.28;;;19.70;50.48
7333;BME280;3707;43.618;25.342;2022-10-18T11:13:26;101549.78;;;19.63;50.79
7333;BME280;3707;43.618;25.342;2022-10-18T11:15:58;101551.53;;;19.67;51.28
7333;BME280;3707;43.618;25.342;2022-10-18T11:18:29;101537.50;;;19.80;50.97
7333;BME280;3707;43.618;25.342;2022-10-18T11:21:01;101535.75;;;19.67;51.33
7333;BME280;3707;43.618;25.342;2022-10-18T11:23:33;101505.91;;;19.48;51.15
7333;BME280;3707;43.618;25.342;2022-10-18T11:26:24;101524.38;;;19.94;50.34
7333;BME280;3707;43.618;25.342;2022-10-18T11:29:13;101496.28;;;19.71;49.59
7333;BME280;3707;43.618;25.342;2022-10-18T11:31:47;101498.03;;;19.56;50.35
7333;BME280;3707;43.618;25.342;2022-10-18T11:34:27;101512.09;;;19.85;50.30
7333;BME280;3707;43.618;25.342;2022-10-18T11:36:59;101489.28;;;19.72;50.91
7333;BME280;3707;43.618;25.342;2022-10-18T11:39:42;101499.78;;;19.92;45.23
7333;BME280;3707;43.618;25.342;2022-10-18T11:42:18;101497.16;;;20.14;46.21
7333;BME280;3707;43.618;25.342;2022-10-18T11:44:57;101481.34;;;20.30;46.09
7333;BME280;3707;43.618;25.342;2022-10-18T11:47:33;101461.16;;;20.07;47.47
7333;BME280;3707;43.618;25.342;2022-10-18T11:50:18;101491.84;;;20.16;47.49
7333;BME280;3707;43.618;25.342;2022-10-18T11:52:55;101455.88;;;20.01;47.78
7333;BME280;3707;43.618;25.342;2022-10-18T11:55:38;101481.31;;;20.23;48.34
7333;BME280;3707;43.618;25.342;2022-10-18T11:58:21;101476.03;;;20.23;47.58
7333;BME280;3707;43.618;25.342;2022-10-18T12:00:54;101474.34;;;19.95;47.87
7333;BME280;3707;43.618;25.342;2022-10-18T12:03:44;101450.59;;;20.21;46.74
7333;BME280;3707;43.618;25.342;2022-10-18T12:06:18;101429.53;;;20.13;46.36
7333;BME280;3707;43.618;25.342;2022-10-18T12:08:48;101448.84;;;20.31;45.91
7333;BME280;3707;43.618;25.342;2022-10-18T12:11:19;101456.69;;;20.50;45.57
7333;BME280;3707;43.618;25.342;2022-10-18T12:13:50;101422.47;;;20.35;46.16
7333;BME280;3707;43.618;25.342;2022-10-18T12:16:20;101455.84;;;20.44;46.84
7333;BME280;3707;43.618;25.342;2022-10-18T12:18:52;101451.44;;;20.38;47.18
7333;BME280;3707;43.618;25.342;2022-10-18T12:21:22;101447.94;;;20.25;45.93
7333;BME280;3707;43.618;25.342;2022-10-18T12:23:52;101429.50;;;20.27;45.75
7333;BME280;3707;43.618;25.342;2022-10-18T12:26:21;101445.25;;;20.48;44.78
7333;BME280;3707;43.618;25.342;2022-10-18T12:28:56;101447.03;;;20.45;45.30
7333;BME280;3707;43.618;25.342;2022-10-18T12:31:27;101439.09;;;20.54;45.44
7333;BME280;3707;43.618;25.342;2022-10-18T12:34:00;101432.91;;;20.59;45.33
7333;BME280;3707;43.618;25.342;2022-10-18T12:36:46;101432.00;;;20.68;45.77
7333;BME280;3707;43.618;25.342;2022-10-18T12:39:20;101429.41;;;20.59;46.40
7333;BME280;3707;43.618;25.342;2022-10-18T12:41:52;101425.09;;;20.40;46.75
7333;BME280;3707;43.618;25.342;2022-10-18T12:44:25;101419.84;;;20.40;47.29
7333;BME280;3707;43.618;25.342;2022-10-18T12:46:55;101415.44;;;20.23;48.17
7333;BME280;3707;43.618;25.342;2022-10-18T12:49:25;101398.78;;;20.24;48.29
7333;BME280;3707;43.618;25.342;2022-10-18T12:51:54;101405.81;;;20.28;48.03
7333;BME280;3707;43.618;25.342;2022-10-18T12:54:25;101403.13;;;20.42;48.61
7333;BME280;3707;43.618;25.342;2022-10-18T12:56:53;101396.19;;;20.05;48.23
7333;BME280;3707;43.618;25.342;2022-10-18T12:59:48;101393.53;;;20.18;47.30
7333;BME280;3707;43.618;25.342;2022-10-18T13:02:33;101399.59;;;20.51;46.96
7333;BME280;3707;43.618;25.342;2022-10-18T13:08:35;101388.19;;;20.46;46.66
7333;BME280;3707;43.618;25.342;2022-10-18T13:11:27;101382.06;;;20.38;46.93
7333;BME280;3707;43.618;25.342;2022-10-18T13:14:18;101383.00;;;20.18;47.60
7333;BME280;3707;43.618;25.342;2022-10-18T13:16:55;101378.53;;;20.42;48.17
7333;BME280;3707;43.618;25.342;2022-10-18T13:19:32;101375.88;;;20.45;47.22
7333;BME280;3707;43.618;25.342;2022-10-18T13:22:23;101355.75;;;20.30;47.26
7333;BME280;3707;43.618;25.342;2022-10-18T13:24:57;101366.25;;;20.38;47.89
7333;BME280;3707;43.618;25.342;2022-10-18T13:27:32;101328.56;;;20.14;47.12